createdAt,value
2022-08-09T00:01:58.288Z,17.70
2022-08-09T00:04:34.655Z,17.70
2022-08-09T00:07:10.374Z,17.70
2022-08-09T00:09:40.697Z,17.70
2022-08-09T00:12:15.626Z,17.70
2022-08-09T00:14:56.622Z,17.60
2022-08-09T00:18:06.116Z,17.60
2022-08-09T00:20:24.732Z,17.60
2022-08-09T00:22:52.704Z,17.60
2022-08-09T00:25:23.622Z,17.50
2022-08-09T00:28:04.525Z,17.50
2022-08-09T00:30:35.895Z,17.50
2022-08-09T00:33:06.237Z,17.40
2022-08-09T00:35:42.981Z,17.40
2022-08-09T00:38:12.895Z,17.40
2022-08-09T00:40:53.111Z,17.40
2022-08-09T00:44:16.635Z,17.30
2022-08-09T00:46:11.140Z,17.30
2022-08-09T00:48:56.575Z,17.30
2022-08-09T00:51:33.775Z,17.20
2022-08-09T00:54:02.418Z,17.20
2022-08-09T00:56:30.920Z,17.20
2022-08-09T00:59:10.632Z,17.20
2022-08-09T01:01:44.863Z,17.10
2022-08-09T01:04:19.157Z,17.00
2022-08-09T01:06:58.142Z,17.00
2022-08-09T01:09:37.105Z,16.90
2022-08-09T01:12:23.827Z,16.90
2022-08-09T01:15:05.835Z,16.80
2022-08-09T01:17:52.019Z,16.70
2022-08-09T01:20:39.183Z,16.70
2022-08-09T01:24:00.762Z,16.60
2022-08-09T01:26:53.933Z,16.60
2022-08-09T01:29:55.548Z,16.50
2022-08-09T01:32:45.389Z,16.50
2022-08-09T01:35:37.284Z,16.50
2022-08-09T01:38:14.966Z,16.50
2022-08-09T01:41:03.032Z,16.50
2022-08-09T01:43:42.008Z,16.40
2022-08-09T01:46:53.791Z,16.40
2022-08-09T01:49:24.182Z,16.40
2022-08-09T01:52:07.514Z,16.40
2022-08-09T01:54:51.856Z,16.30
2022-08-09T01:57:40.356Z,16.30
2022-08-09T02:00:35.279Z,16.30
2022-08-09T02:03:13.568Z,16.20
2022-08-09T02:06:03.179Z,16.20
2022-08-09T02:08:40.657Z,16.20
2022-08-09T02:11:21.182Z,16.20
2022-08-09T02:14:06.131Z,16.10
2022-08-09T02:16:53.036Z,16.10
2022-08-09T02:19:38.685Z,16.00
2022-08-09T02:22:38.920Z,16.10
2022-08-09T02:25:20.566Z,16.00
2022-08-09T02:28:00.377Z,16.00
2022-08-09T02:30:36.210Z,16.00
2022-08-09T02:33:18.445Z,16.00
2022-08-09T02:36:02.745Z,15.90
2022-08-09T02:38:47.835Z,15.90
2022-08-09T02:41:28.537Z,15.90
2022-08-09T02:44:10.324Z,15.90
2022-08-09T02:47:06.610Z,15.90
2022-08-09T02:50:01.842Z,15.80
2022-08-09T02:52:40.084Z,15.80
2022-08-09T02:55:20.718Z,15.80
2022-08-09T02:58:00.367Z,15.70
2022-08-09T03:00:48.000Z,15.70
2022-08-09T03:04:13.029Z,15.70
2022-08-09T03:06:25.041Z,15.70
2022-08-09T03:08:56.538Z,15.70
2022-08-09T03:12:04.295Z,15.60
2022-08-09T03:14:15.945Z,15.60
2022-08-09T03:16:48.040Z,15.60
2022-08-09T03:19:58.026Z,15.60
2022-08-09T03:22:25.712Z,15.60
2022-08-09T03:25:21.824Z,15.60
2022-08-09T03:27:55.362Z,15.50
2022-08-09T03:30:29.759Z,15.50
2022-08-09T03:33:17.782Z,15.50
2022-08-09T03:36:15.804Z,15.50
2022-08-09T03:38:48.856Z,15.40
2022-08-09T03:41:18.366Z,15.40
2022-08-09T03:44:02.992Z,15.40
2022-08-09T03:46:36.683Z,15.40
2022-08-09T03:49:08.821Z,15.30
2022-08-09T03:51:57.277Z,15.30
2022-08-09T03:54:38.249Z,15.30
2022-08-09T03:57:18.530Z,15.20
2022-08-09T03:59:56.061Z,15.20
2022-08-09T04:02:34.996Z,15.20
2022-08-09T04:05:06.706Z,15.20
2022-08-09T04:07:52.404Z,15.20
2022-08-09T04:10:28.906Z,15.10
2022-08-09T04:13:03.961Z,15.10
2022-08-09T04:16:19.844Z,15.10
2022-08-09T04:18:30.758Z,15.10
2022-08-09T04:21:03.222Z,15.10
2022-08-09T04:23:31.768Z,15.10
2022-08-09T04:26:01.573Z,15.10
2022-08-09T04:28:30.537Z,15.10
2022-08-09T04:31:05.926Z,15.00
2022-08-09T04:33:52.528Z,15.00
2022-08-09T04:36:24.340Z,15.00
2022-08-09T04:38:53.523Z,15.00
2022-08-09T04:41:33.274Z,14.90
2022-08-09T04:44:11.255Z,14.90
2022-08-09T04:46:58.705Z,14.90
2022-08-09T04:49:53.736Z,14.90
2022-08-09T04:52:26.533Z,14.90
2022-08-09T04:54:57.050Z,14.90
2022-08-09T04:57:25.792Z,14.90
2022-08-09T04:59:55.604Z,14.90
2022-08-09T05:02:28.264Z,14.90
2022-08-09T05:04:56.883Z,14.90
2022-08-09T05:07:31.839Z,14.90
2022-08-09T05:10:02.592Z,14.90
2022-08-09T05:12:33.036Z,14.90
2022-08-09T05:15:11.806Z,14.90
2022-08-09T05:18:39.320Z,14.90
2022-08-09T05:20:59.066Z,14.90
2022-08-09T05:23:54.967Z,15.00
2022-08-09T05:26:37.234Z,15.00
2022-08-09T05:29:17.260Z,15.00
2022-08-09T05:31:56.918Z,15.10
2022-08-09T05:34:32.935Z,15.10
2022-08-09T05:37:07.355Z,15.20
2022-08-09T05:39:44.849Z,15.20
2022-08-09T05:42:17.227Z,15.20
2022-08-09T05:44:58.287Z,15.30
2022-08-09T05:47:30.364Z,15.30
2022-08-09T05:50:25.211Z,15.40
2022-08-09T05:52:57.077Z,15.60
2022-08-09T05:55:26.119Z,15.70
2022-08-09T05:57:56.662Z,15.90
2022-08-09T06:00:35.673Z,16.10
2022-08-09T06:03:10.604Z,16.20
2022-08-09T06:05:57.073Z,16.40
2022-08-09T06:08:33.963Z,16.70
2022-08-09T06:11:01.870Z,16.90
2022-08-09T06:13:47.390Z,17.10
2022-08-09T06:16:18.597Z,17.30
2022-08-09T06:18:46.417Z,17.60
2022-08-09T06:21:16.349Z,17.90
2022-08-09T06:23:58.083Z,18.10
2022-08-09T06:26:40.706Z,18.30
2022-08-09T06:29:14.906Z,18.50
2022-08-09T06:32:08.537Z,18.60
2022-08-09T06:34:33.790Z,18.70
2022-08-09T06:37:01.907Z,18.90
2022-08-09T06:39:38.798Z,19.00
2022-08-09T06:42:24.574Z,19.00
2022-08-09T06:44:58.514Z,19.10
2022-08-09T06:47:40.084Z,19.20
2022-08-09T06:50:22.467Z,19.30
2022-08-09T06:52:50.402Z,19.40
2022-08-09T06:55:24.069Z,19.50
2022-08-09T06:58:03.607Z,19.50
2022-08-09T07:00:56.986Z,19.50
2022-08-09T07:03:28.620Z,19.50
2022-08-09T07:06:04.477Z,19.60
2022-08-09T07:08:39.511Z,19.70
2022-08-09T07:11:08.254Z,19.80
2022-08-09T07:13:45.534Z,20.00
2022-08-09T07:16:42.209Z,20.20
2022-08-09T07:19:23.373Z,20.40
2022-08-09T07:21:57.586Z,20.60
2022-08-09T07:24:31.903Z,20.80
2022-08-09T07:27:01.966Z,21.00
2022-08-09T07:29:37.880Z,21.30
2022-08-09T07:32:07.414Z,21.60
2022-08-09T07:34:35.837Z,21.80
2022-08-09T07:37:04.245Z,22.00
2022-08-09T07:39:41.324Z,22.10
2022-08-09T07:42:11.447Z,22.30
2022-08-09T07:44:53.042Z,22.40
2022-08-09T07:47:28.166Z,22.50
2022-08-09T07:50:07.829Z,22.50
2022-08-09T07:52:38.506Z,22.50
2022-08-09T07:55:09.788Z,22.40
2022-08-09T07:57:47.254Z,22.50
2022-08-09T08:00:35.949Z,22.80
2022-08-09T08:03:08.043Z,23.20
2022-08-09T08:05:57.242Z,23.80
2022-08-09T08:09:00.268Z,24.30
2022-08-09T08:12:19.801Z,24.80
2022-08-09T08:14:09.008Z,25.00
2022-08-09T08:16:39.571Z,25.10
2022-08-09T08:19:10.511Z,25.00
2022-08-09T08:21:39.520Z,24.90
2022-08-09T08:24:11.851Z,24.70
2022-08-09T08:26:55.084Z,24.60
2022-08-09T08:29:28.154Z,24.70
2022-08-09T08:32:04.028Z,24.90
2022-08-09T08:34:34.738Z,25.10
2022-08-09T08:37:06.613Z,25.10
2022-08-09T08:39:44.651Z,25.10
2022-08-09T08:42:12.907Z,25.30
2022-08-09T08:44:42.976Z,25.40
2022-08-09T08:47:14.773Z,25.70
2022-08-09T08:49:46.779Z,26.10
2022-08-09T08:55:19.053Z,26.90
2022-08-09T08:57:58.281Z,27.20
2022-08-09T09:00:34.098Z,27.60
2022-08-09T09:03:08.402Z,27.90
2022-08-09T09:05:59.695Z,27.90
2022-08-09T09:08:42.253Z,27.80
2022-08-09T09:11:13.636Z,27.80
2022-08-09T09:13:57.377Z,27.80
2022-08-09T09:16:32.293Z,27.80
2022-08-09T09:22:05.397Z,28.00
2022-08-09T09:24:37.239Z,28.20
2022-08-09T09:27:07.293Z,28.50
2022-08-09T09:30:13.894Z,28.60
2022-08-09T09:32:34.252Z,28.80
2022-08-09T09:35:10.124Z,28.90
2022-08-09T09:37:41.119Z,29.00
2022-08-09T09:40:11.815Z,28.90
2022-08-09T09:42:43.017Z,29.10
2022-08-09T09:45:26.480Z,29.10
2022-08-09T09:48:03.287Z,29.30
2022-08-09T09:50:49.559Z,29.60
2022-08-09T09:53:57.314Z,29.90
2022-08-09T09:56:20.126Z,30.10
2022-08-09T09:59:01.515Z,30.20
2022-08-09T10:01:38.060Z,30.40
2022-08-09T10:04:30.820Z,30.60
2022-08-09T10:07:03.523Z,30.80
2022-08-09T10:09:49.124Z,30.90
2022-08-09T10:12:31.664Z,31.10
2022-08-09T10:15:25.553Z,31.30
2022-08-09T10:18:12.809Z,31.30
2022-08-09T10:20:51.265Z,31.40
2022-08-09T10:23:23.807Z,31.30
2022-08-09T10:26:06.378Z,31.40
2022-08-09T10:28:41.675Z,31.40
2022-08-09T10:32:27.729Z,31.40
2022-08-09T10:34:10.344Z,31.40
2022-08-09T10:36:52.073Z,31.70
2022-08-09T10:39:40.777Z,31.70
2022-08-09T10:42:26.890Z,31.60
2022-08-09T10:45:04.305Z,31.80
2022-08-09T10:48:16.750Z,31.70
2022-08-09T10:50:57.848Z,31.60
2022-08-09T10:53:54.442Z,31.70
2022-08-09T10:56:34.369Z,32.10
2022-08-09T10:59:23.284Z,32.20
2022-08-09T11:03:14.939Z,32.40
2022-08-09T11:04:55.611Z,32.50
2022-08-09T11:07:57.546Z,32.60
2022-08-09T11:10:54.684Z,32.70
2022-08-09T11:13:49.826Z,33.20
2022-08-09T11:16:37.192Z,33.40
2022-08-09T11:19:10.232Z,33.60
2022-08-09T11:22:10.698Z,33.80
2022-08-09T11:25:09.017Z,33.90
2022-08-09T11:28:05.590Z,34.00
2022-08-09T11:30:36.525Z,33.90
2022-08-09T11:33:11.793Z,33.80
2022-08-09T11:35:50.347Z,33.70
2022-08-09T11:38:33.229Z,33.40
2022-08-09T11:41:05.437Z,33.10
2022-08-09T11:43:45.782Z,32.80
2022-08-09T11:46:26.624Z,32.90
2022-08-09T11:49:05.096Z,33.00
2022-08-09T11:53:00.491Z,33.30
2022-08-09T11:55:39.854Z,33.40
2022-08-09T11:58:14.578Z,33.30
2022-08-09T12:01:03.463Z,33.50
2022-08-09T12:03:56.149Z,33.70
2022-08-09T12:06:32.824Z,33.70
2022-08-09T12:09:17.521Z,33.70
2022-08-09T12:12:03.360Z,33.70
2022-08-09T12:14:40.806Z,33.70
2022-08-09T12:17:34.035Z,33.80
2022-08-09T12:20:21.996Z,33.80
2022-08-09T12:22:59.694Z,33.80
2022-08-09T12:25:37.414Z,33.80
2022-08-09T12:29:00.355Z,34.10
2022-08-09T12:31:58.240Z,34.30
2022-08-09T12:34:17.813Z,34.40
2022-08-09T12:36:53.142Z,34.50
2022-08-09T12:39:26.815Z,34.50
2022-08-09T12:41:55.437Z,34.50
2022-08-09T12:44:25.404Z,34.80
2022-08-09T12:47:06.461Z,35.00
2022-08-09T12:49:41.104Z,35.10
2022-08-09T12:52:21.085Z,35.30
2022-08-09T12:56:15.820Z,35.30
2022-08-09T12:58:24.432Z,35.40
2022-08-09T13:00:56.184Z,35.20
2022-08-09T13:03:53.029Z,35.20
2022-08-09T13:06:33.959Z,35.00
2022-08-09T13:09:30.593Z,35.10
2022-08-09T13:12:03.210Z,34.90
2022-08-09T13:14:42.753Z,34.80
2022-08-09T13:17:44.311Z,34.70
2022-08-09T13:20:13.962Z,34.60
2022-08-09T13:23:01.624Z,34.80
2022-08-09T13:25:54.660Z,35.10
2022-08-09T13:28:33.754Z,35.30
2022-08-09T13:32:16.284Z,35.40
2022-08-09T13:33:54.760Z,35.20
2022-08-09T13:36:41.032Z,35.30
2022-08-09T13:41:55.965Z,35.00
2022-08-09T13:42:02.149Z,35.10
2022-08-09T13:44:30.774Z,35.10
2022-08-09T13:47:30.807Z,35.00
2022-08-09T13:49:57.492Z,34.90
2022-08-09T13:52:33.981Z,34.90
2022-08-09T13:55:07.416Z,34.80
2022-08-09T13:57:56.248Z,34.70
2022-08-09T14:00:28.302Z,34.70
2022-08-09T14:03:16.817Z,34.50
2022-08-09T14:05:58.479Z,34.30
2022-08-09T14:08:33.830Z,34.10
2022-08-09T14:11:01.653Z,34.10
2022-08-09T14:14:23.328Z,34.10
2022-08-09T14:16:28.459Z,34.20
2022-08-09T14:18:58.210Z,34.40
2022-08-09T14:21:29.323Z,34.40
2022-08-09T14:24:05.586Z,34.50
2022-08-09T14:26:38.288Z,34.40
2022-08-09T14:30:18.661Z,34.40
2022-08-09T14:31:56.101Z,34.30
2022-08-09T14:34:27.428Z,34.30
2022-08-09T14:37:06.526Z,34.40
2022-08-09T14:39:47.900Z,34.30
2022-08-09T14:42:40.505Z,34.30
2022-08-09T14:46:46.317Z,34.20
2022-08-09T14:48:02.061Z,34.20
2022-08-09T14:50:40.345Z,34.20
2022-08-09T14:53:11.728Z,34.10
2022-08-09T14:55:49.889Z,34.00
2022-08-09T14:58:18.657Z,34.00
2022-08-09T15:00:48.559Z,33.90
2022-08-09T15:03:22.523Z,33.90
2022-08-09T15:05:54.745Z,34.10
2022-08-09T15:08:26.210Z,34.30
2022-08-09T15:11:00.313Z,34.10
2022-08-09T15:13:56.224Z,34.00
2022-08-09T15:16:21.037Z,33.80
2022-08-09T15:18:53.183Z,33.60
2022-08-09T15:22:00.702Z,33.50
2022-08-09T15:24:12.905Z,33.50
2022-08-09T15:26:46.704Z,33.50
2022-08-09T15:30:56.453Z,33.50
2022-08-09T15:32:28.940Z,33.50
2022-08-09T15:35:01.664Z,33.50
2022-08-09T15:38:10.688Z,33.50
2022-08-09T15:40:43.717Z,33.60
2022-08-09T15:43:17.535Z,33.40
2022-08-09T15:46:07.614Z,33.20
2022-08-09T15:48:37.088Z,33.10
2022-08-09T15:51:11.473Z,32.80
2022-08-09T15:54:04.878Z,32.50
2022-08-09T15:56:40.004Z,32.50
2022-08-09T15:59:07.744Z,32.30
2022-08-09T16:01:36.005Z,32.20
2022-08-09T16:04:04.385Z,32.30
2022-08-09T16:06:37.340Z,32.30
2022-08-09T16:09:06.225Z,32.10
2022-08-09T16:11:34.179Z,31.80
2022-08-09T16:14:08.017Z,31.40
2022-08-09T16:16:49.384Z,30.90
2022-08-09T16:19:19.305Z,30.10
2022-08-09T16:21:52.069Z,29.50
2022-08-09T16:24:33.434Z,28.90
2022-08-09T16:27:05.307Z,28.50
2022-08-09T16:29:37.523Z,28.50
2022-08-09T16:32:35.134Z,27.80
2022-08-09T16:35:03.501Z,27.50
2022-08-09T16:37:55.091Z,27.20
2022-08-09T16:40:29.721Z,27.00
2022-08-09T16:43:11.324Z,26.70
2022-08-09T16:45:44.049Z,26.50
2022-08-09T16:48:41.447Z,26.30
2022-08-09T16:51:08.362Z,26.10
2022-08-09T16:56:34.557Z,25.70
2022-08-09T16:59:10.698Z,25.60
2022-08-09T17:01:39.366Z,25.60
2022-08-09T17:04:13.819Z,25.60
2022-08-09T17:08:44.725Z,25.50
2022-08-09T17:09:47.074Z,25.40
2022-08-09T17:12:16.185Z,25.40
2022-08-09T17:14:49.032Z,25.30
2022-08-09T17:17:27.223Z,25.30
2022-08-09T17:20:28.586Z,25.40
2022-08-09T17:22:52.481Z,25.30
2022-08-09T17:25:23.296Z,25.30
2022-08-09T17:27:54.688Z,25.20
2022-08-09T17:30:25.774Z,25.10
2022-08-09T17:32:57.682Z,25.10
2022-08-09T17:35:33.918Z,25.00
2022-08-09T17:38:12.906Z,24.90
2022-08-09T17:40:47.268Z,24.80
2022-08-09T17:43:34.618Z,24.70
2022-08-09T17:46:09.837Z,24.60
2022-08-09T17:48:52.487Z,24.50
2022-08-09T17:51:30.213Z,24.50
2022-08-09T17:54:07.100Z,24.40
2022-08-09T17:56:50.196Z,24.30
2022-08-09T17:59:18.240Z,24.30
2022-08-09T18:02:06.400Z,24.20
2022-08-09T18:04:51.024Z,24.10
2022-08-09T18:07:23.495Z,24.00
2022-08-09T18:10:04.602Z,23.90
2022-08-09T18:12:40.608Z,23.80
2022-08-09T18:15:21.335Z,23.70
2022-08-09T18:18:25.770Z,23.60
2022-08-09T18:21:18.943Z,23.50
2022-08-09T18:24:09.675Z,23.40
2022-08-09T18:26:48.233Z,23.30
2022-08-09T18:30:36.327Z,23.20
2022-08-09T18:32:07.886Z,23.20
2022-08-09T18:34:36.448Z,23.00
2022-08-09T18:37:47.798Z,23.00
2022-08-09T18:40:02.050Z,22.90
2022-08-09T18:42:29.957Z,22.90
2022-08-09T18:45:08.610Z,22.90
2022-08-09T18:47:38.256Z,22.80
2022-08-09T18:50:08.956Z,22.70
2022-08-09T18:52:38.975Z,22.70
2022-08-09T18:55:13.512Z,22.60
2022-08-09T18:57:43.461Z,22.60
2022-08-09T19:00:19.147Z,22.50
2022-08-09T19:02:50.972Z,22.40
2022-08-09T19:05:48.738Z,22.30
2022-08-09T19:08:14.167Z,22.20
2022-08-09T19:10:47.921Z,22.10
2022-08-09T19:13:20.546Z,22.00
2022-08-09T19:15:52.645Z,21.90
2022-08-09T19:18:33.466Z,21.90
2022-08-09T19:21:11.469Z,21.80
2022-08-09T19:24:35.829Z,21.80
2022-08-09T19:26:31.641Z,21.70
2022-08-09T19:29:03.085Z,21.60
2022-08-09T19:31:45.067Z,21.50
2022-08-09T19:34:21.989Z,21.40
2022-08-09T19:36:59.366Z,21.40
2022-08-09T19:39:29.127Z,21.30
2022-08-09T19:42:15.154Z,21.30
2022-08-09T19:44:51.294Z,21.20
2022-08-09T19:47:30.055Z,21.10
2022-08-09T19:50:51.050Z,21.10
2022-08-09T19:52:55.141Z,21.10
2022-08-09T19:55:30.562Z,21.00
2022-08-09T19:58:01.872Z,20.90
2022-08-09T20:00:30.050Z,20.90
2022-08-09T20:04:27.881Z,20.90
2022-08-09T20:05:50.520Z,20.80
2022-08-09T20:08:25.133Z,20.80
2022-08-09T20:11:04.933Z,20.70
2022-08-09T20:13:37.048Z,20.70
2022-08-09T20:16:37.771Z,20.60
2022-08-09T20:19:42.282Z,20.60
2022-08-09T20:21:56.554Z,20.60
2022-08-09T20:24:29.913Z,20.50
2022-08-09T20:27:05.638Z,20.50
2022-08-09T20:29:38.602Z,20.50
2022-08-09T20:32:30.973Z,20.40
2022-08-09T20:34:59.205Z,20.40
2022-08-09T20:38:18.594Z,20.40
2022-08-09T20:40:26.677Z,20.30
2022-08-09T20:43:18.049Z,20.30
2022-08-09T20:45:57.516Z,20.20
2022-08-09T20:48:30.984Z,20.20
2022-08-09T20:51:01.432Z,20.10
2022-08-09T20:53:36.977Z,20.10
2022-08-09T20:56:20.114Z,20.10
2022-08-09T20:58:49.997Z,20.10
2022-08-09T21:01:35.331Z,20.00
2022-08-09T21:05:52.229Z,20.00
2022-08-09T21:06:59.627Z,20.00
2022-08-09T21:09:56.769Z,19.90
2022-08-09T21:12:32.187Z,19.90
2022-08-09T21:15:16.530Z,19.90
2022-08-09T21:18:21.163Z,19.80
2022-08-09T21:20:39.280Z,19.80
2022-08-09T21:23:09.148Z,19.70
2022-08-09T21:25:59.543Z,19.70
2022-08-09T21:28:35.832Z,19.70
2022-08-09T21:31:16.162Z,19.70
2022-08-09T21:33:52.954Z,19.60
2022-08-09T21:36:22.954Z,19.60
2022-08-09T21:38:57.195Z,19.60
2022-08-09T21:42:05.974Z,19.60
2022-08-09T21:44:34.223Z,19.50
2022-08-09T21:47:07.956Z,19.50
2022-08-09T21:49:39.780Z,19.50
2022-08-09T21:52:16.578Z,19.40
2022-08-09T21:54:59.510Z,19.40
2022-08-09T21:57:39.120Z,19.40
2022-08-09T22:00:37.163Z,19.30
2022-08-09T22:03:12.593Z,19.30
2022-08-09T22:05:51.214Z,19.30
2022-08-09T22:08:22.956Z,19.30
2022-08-09T22:11:01.013Z,19.30
2022-08-09T22:13:46.146Z,19.30
2022-08-09T22:16:17.787Z,19.20
2022-08-09T22:18:53.215Z,19.20
2022-08-09T22:21:45.158Z,19.20
2022-08-09T22:24:21.193Z,19.10
2022-08-09T22:26:55.067Z,19.10
2022-08-09T22:29:28.751Z,19.00
2022-08-09T22:32:02.186Z,19.00
2022-08-09T22:34:31.282Z,19.00
2022-08-09T22:37:02.329Z,19.00
2022-08-09T22:39:57.373Z,18.90
2022-08-09T22:42:24.979Z,18.90
2022-08-09T22:45:00.163Z,18.90
2022-08-09T22:48:11.471Z,18.80
2022-08-09T22:50:32.854Z,18.80
2022-08-09T22:53:05.116Z,18.70
2022-08-09T22:56:06.187Z,19.00
2022-08-09T22:58:32.825Z,18.70
2022-08-09T23:01:03.965Z,18.70
2022-08-09T23:04:03.465Z,18.60
2022-08-09T23:06:32.718Z,18.60
2022-08-09T23:09:06.918Z,18.60
2022-08-09T23:11:34.965Z,18.50
2022-08-09T23:14:03.896Z,18.50
2022-08-09T23:16:32.103Z,18.50
2022-08-09T23:19:00.921Z,18.40
2022-08-09T23:21:34.329Z,18.40
2022-08-09T23:24:08.040Z,18.40
2022-08-09T23:26:40.376Z,18.40
2022-08-09T23:29:14.040Z,18.40
2022-08-09T23:31:45.762Z,18.30
2022-08-09T23:34:13.889Z,18.30
2022-08-09T23:36:48.892Z,18.30
2022-08-09T23:39:16.690Z,18.30
2022-08-09T23:41:45.946Z,18.30
2022-08-09T23:44:13.615Z,18.30
2022-08-09T23:46:42.934Z,18.20
2022-08-09T23:49:11.738Z,18.20
2022-08-09T23:51:40.365Z,18.20
2022-08-09T23:54:09.140Z,18.20
2022-08-09T23:56:52.833Z,18.20
2022-08-09T23:59:24.748Z,18.10
